createdAt,value
2022-09-24T00:00:19.780Z,1.90
2022-09-24T00:03:07.424Z,1.47
2022-09-24T00:05:54.926Z,1.90
2022-09-24T00:08:42.624Z,2.03
2022-09-24T00:11:31.181Z,2.17
2022-09-24T00:14:19.665Z,2.17
2022-09-24T00:17:07.150Z,2.93
2022-09-24T00:19:54.620Z,2.37
2022-09-24T00:22:42.155Z,2.13
2022-09-24T00:25:48.306Z,2.23
2022-09-24T00:28:35.832Z,2.37
2022-09-24T00:31:24.482Z,1.90
2022-09-24T00:34:12.370Z,2.33
2022-09-24T00:36:59.910Z,1.87
2022-09-24T00:39:47.365Z,2.43
2022-09-24T00:42:34.850Z,2.10
2022-09-24T00:45:24.751Z,2.07
2022-09-24T00:48:12.416Z,2.10
2022-09-24T00:51:04.350Z,2.80
2022-09-24T00:53:57.275Z,1.70
2022-09-24T00:56:49.279Z,1.90
2022-09-24T00:59:37.235Z,1.93
2022-09-24T01:02:24.875Z,2.10
2022-09-24T01:05:12.554Z,3.03
2022-09-24T01:08:00.280Z,3.00
2022-09-24T01:11:15.346Z,2.00
2022-09-24T01:14:27.177Z,2.13
2022-09-24T01:17:39.541Z,2.47
2022-09-24T01:20:52.623Z,2.47
2022-09-24T01:24:25.296Z,2.10
2022-09-24T01:27:53.120Z,2.47
2022-09-24T01:30:43.131Z,2.10
2022-09-24T01:33:36.279Z,1.50
2022-09-24T01:36:27.980Z,1.93
2022-09-24T01:39:16.651Z,2.30
2022-09-24T01:42:05.737Z,1.77
2022-09-24T01:44:54.900Z,2.73
2022-09-24T01:47:45.930Z,1.83
2022-09-24T01:50:51.970Z,1.77
2022-09-24T01:54:10.114Z,2.20
2022-09-24T01:57:36.140Z,2.03
2022-09-24T02:00:24.445Z,1.77
2022-09-24T02:03:27.327Z,2.57
2022-09-24T02:06:44.966Z,1.73
2022-09-24T02:09:37.406Z,1.87
2022-09-24T02:12:35.175Z,2.30
2022-09-24T02:15:49.358Z,1.93
2022-09-24T02:18:42.219Z,1.73
2022-09-24T02:21:32.751Z,1.53
2022-09-24T02:24:30.654Z,2.07
2022-09-24T02:27:19.591Z,2.00
2022-09-24T02:30:11.199Z,1.80
2022-09-24T02:32:59.932Z,2.13
2022-09-24T02:35:48.238Z,1.40
2022-09-24T02:38:35.715Z,2.50
2022-09-24T02:41:26.266Z,1.97
2022-09-24T02:44:18.120Z,2.10
2022-09-24T02:47:08.295Z,1.60
2022-09-24T02:49:56.246Z,1.73
2022-09-24T02:52:44.440Z,1.60
2022-09-24T02:55:33.611Z,2.07
2022-09-24T02:58:21.381Z,1.97
2022-09-24T03:01:08.986Z,1.73
2022-09-24T03:03:57.022Z,2.60
2022-09-24T03:06:44.687Z,1.90
2022-09-24T03:09:32.291Z,2.30
2022-09-24T03:12:19.734Z,1.73
2022-09-24T03:15:07.671Z,2.90
2022-09-24T03:17:55.107Z,1.80
2022-09-24T03:20:42.962Z,1.63
2022-09-24T03:23:30.771Z,2.33
2022-09-24T03:26:18.415Z,2.03
2022-09-24T03:29:05.875Z,1.63
2022-09-24T03:31:53.519Z,2.30
2022-09-24T03:34:41.111Z,2.37
2022-09-24T03:37:28.857Z,2.57
2022-09-24T03:40:16.470Z,2.03
2022-09-24T03:43:04.126Z,2.53
2022-09-24T03:45:53.217Z,2.30
2022-09-24T03:48:41.939Z,2.63
2022-09-24T03:51:29.435Z,2.03
2022-09-24T03:54:17.175Z,2.17
2022-09-24T03:57:04.642Z,2.90
2022-09-24T03:59:54.315Z,2.57
2022-09-24T04:02:41.912Z,1.90
2022-09-24T04:05:30.615Z,2.10
2022-09-24T04:08:20.501Z,2.37
2022-09-24T04:11:08.055Z,2.83
2022-09-24T04:13:55.544Z,2.33
2022-09-24T04:16:43.051Z,1.80
2022-09-24T04:19:31.933Z,2.13
2022-09-24T04:22:19.430Z,1.90
2022-09-24T04:25:10.277Z,2.17
2022-09-24T04:28:06.646Z,1.90
2022-09-24T04:30:54.281Z,2.17
2022-09-24T04:33:41.892Z,1.87
2022-09-24T04:36:29.386Z,2.00
2022-09-24T04:39:16.915Z,2.37
2022-09-24T04:42:04.480Z,1.97
2022-09-24T04:44:56.031Z,1.83
2022-09-24T04:47:43.835Z,2.10
2022-09-24T04:50:35.051Z,2.20
2022-09-24T04:53:23.645Z,2.50
2022-09-24T04:56:12.195Z,2.60
2022-09-24T04:59:00.018Z,2.63
2022-09-24T05:01:47.746Z,2.20
2022-09-24T05:04:39.189Z,1.83
2022-09-24T05:07:26.862Z,2.50
2022-09-24T05:10:14.421Z,2.07
2022-09-24T05:13:02.507Z,2.80
2022-09-24T05:15:50.924Z,2.60
2022-09-24T05:18:38.432Z,2.20
2022-09-24T05:21:25.966Z,2.47
2022-09-24T05:24:14.060Z,2.47
2022-09-24T05:27:10.671Z,2.23
2022-09-24T05:29:58.220Z,2.33
2022-09-24T05:32:47.252Z,2.00
2022-09-24T05:35:34.756Z,2.40
2022-09-24T05:38:22.514Z,2.50
2022-09-24T05:41:10.247Z,2.40
2022-09-24T05:43:59.833Z,2.60
2022-09-24T05:46:51.613Z,2.33
2022-09-24T05:49:39.411Z,2.03
2022-09-24T05:52:26.937Z,2.33
2022-09-24T05:55:14.665Z,1.97
2022-09-24T05:58:08.020Z,2.07
2022-09-24T06:00:55.475Z,1.83
2022-09-24T06:03:42.995Z,2.60
2022-09-24T06:06:30.515Z,2.70
2022-09-24T06:09:18.034Z,1.97
2022-09-24T06:12:08.585Z,2.27
2022-09-24T06:14:56.191Z,2.70
2022-09-24T06:17:43.670Z,2.03
2022-09-24T06:20:32.284Z,1.87
2022-09-24T06:23:19.774Z,2.57
2022-09-24T06:26:11.265Z,2.20
2022-09-24T06:29:04.401Z,2.57
2022-09-24T06:31:53.836Z,2.30
2022-09-24T06:34:41.311Z,2.47
2022-09-24T06:37:29.080Z,2.00
2022-09-24T06:40:17.103Z,2.97
2022-09-24T06:43:06.928Z,2.47
2022-09-24T06:45:59.117Z,2.43
2022-09-24T06:48:49.645Z,2.90
2022-09-24T06:51:37.250Z,2.20
2022-09-24T06:54:25.396Z,2.17
2022-09-24T06:57:12.945Z,1.93
2022-09-24T07:00:00.587Z,2.13
2022-09-24T07:02:52.494Z,1.77
2022-09-24T07:05:43.528Z,1.90
2022-09-24T07:08:32.828Z,1.87
2022-09-24T07:11:20.375Z,2.40
2022-09-24T07:14:08.101Z,2.30
2022-09-24T07:16:55.620Z,1.80
2022-09-24T07:19:43.246Z,1.60
2022-09-24T07:22:31.040Z,2.13
2022-09-24T07:25:18.596Z,2.50
2022-09-24T07:28:10.230Z,1.80
2022-09-24T07:31:01.296Z,1.67
2022-09-24T07:33:48.796Z,2.13
2022-09-24T07:36:36.377Z,2.07
2022-09-24T07:39:27.449Z,1.97
2022-09-24T07:42:14.961Z,1.83
2022-09-24T07:45:02.470Z,1.60
2022-09-24T07:47:59.571Z,1.83
2022-09-24T07:50:47.440Z,2.00
2022-09-24T07:53:35.055Z,2.00
2022-09-24T07:56:24.941Z,1.80
2022-09-24T07:59:12.559Z,2.10
2022-09-24T08:02:00.123Z,2.43
2022-09-24T08:04:48.407Z,2.30
2022-09-24T08:07:36.020Z,2.37
2022-09-24T08:10:26.553Z,2.30
2022-09-24T08:13:14.058Z,1.93
2022-09-24T08:16:03.595Z,1.60
2022-09-24T08:18:51.130Z,2.07
2022-09-24T08:21:39.482Z,2.17
2022-09-24T08:24:27.020Z,2.00
2022-09-24T08:27:17.316Z,2.23
2022-09-24T08:30:07.268Z,2.00
2022-09-24T08:32:54.811Z,2.20
2022-09-24T08:35:42.332Z,1.57
2022-09-24T08:38:30.130Z,1.63
2022-09-24T08:41:44.521Z,1.77
2022-09-24T08:45:01.759Z,1.77
2022-09-24T08:48:00.756Z,2.00
2022-09-24T08:51:02.426Z,1.70
2022-09-24T08:54:10.071Z,2.00
2022-09-24T08:57:03.122Z,2.43
2022-09-24T08:59:53.085Z,1.90
2022-09-24T09:03:05.225Z,1.43
2022-09-24T09:06:05.225Z,2.23
2022-09-24T09:09:11.003Z,1.40
2022-09-24T09:12:05.065Z,1.70
2022-09-24T09:15:15.477Z,2.40
2022-09-24T09:18:20.040Z,1.97
2022-09-24T09:21:55.701Z,1.70
2022-09-24T09:24:49.697Z,2.33
2022-09-24T09:27:37.330Z,2.10
2022-09-24T09:30:25.021Z,2.10
2022-09-24T09:33:19.760Z,1.87
2022-09-24T09:36:25.436Z,2.53
2022-09-24T09:40:10.455Z,1.90
2022-09-24T09:43:07.716Z,1.73
2022-09-24T09:46:25.764Z,2.07
2022-09-24T09:49:15.596Z,2.33
2022-09-24T09:52:21.560Z,1.80
2022-09-24T09:55:21.066Z,2.00
2022-09-24T09:58:27.849Z,2.20
2022-09-24T10:01:18.811Z,2.30
2022-09-24T10:04:06.729Z,2.22
2022-09-24T10:07:12.405Z,2.40
2022-09-24T10:10:16.910Z,2.60
2022-09-24T10:13:13.456Z,1.90
2022-09-24T10:16:10.404Z,2.37
2022-09-24T10:18:58.021Z,1.90
2022-09-24T10:21:45.625Z,2.25
2022-09-24T10:24:35.097Z,1.92
2022-09-24T10:27:38.036Z,1.73
2022-09-24T10:30:34.476Z,1.88
2022-09-24T10:33:23.002Z,1.90
2022-09-24T10:36:19.255Z,1.50
2022-09-24T10:39:15.701Z,1.75
2022-09-24T10:42:03.340Z,1.58
2022-09-24T10:44:52.939Z,1.90
2022-09-24T10:47:53.635Z,1.55
2022-09-24T10:50:49.954Z,1.70
2022-09-24T10:53:41.681Z,1.45
2022-09-24T10:56:46.658Z,2.05
2022-09-24T11:00:03.200Z,2.05
2022-09-24T11:03:36.956Z,1.75
2022-09-24T11:07:03.306Z,1.60
2022-09-24T11:10:15.714Z,1.60
2022-09-24T11:13:40.781Z,1.73
2022-09-24T11:16:49.225Z,2.10
2022-09-24T11:20:13.404Z,1.55
2022-09-24T11:23:15.771Z,2.20
2022-09-24T11:26:24.852Z,1.75
2022-09-24T11:29:49.185Z,2.03
2022-09-24T11:32:59.431Z,2.05
2022-09-24T11:36:16.195Z,2.15
2022-09-24T11:39:34.480Z,2.10
2022-09-24T11:42:29.131Z,1.90
2022-09-24T11:45:19.600Z,2.08
2022-09-24T11:48:44.942Z,1.50
2022-09-24T11:51:32.406Z,1.98
2022-09-24T11:54:30.470Z,2.10
2022-09-24T11:57:37.684Z,2.47
2022-09-24T12:00:34.071Z,2.15
2022-09-24T12:03:46.070Z,2.30
2022-09-24T12:07:13.441Z,2.15
2022-09-24T12:10:37.367Z,1.90
2022-09-24T12:13:45.337Z,1.83
2022-09-24T12:16:38.506Z,2.38
2022-09-24T12:19:42.101Z,1.90
2022-09-24T12:22:33.427Z,1.70
2022-09-24T12:25:20.924Z,1.85
2022-09-24T12:28:40.000Z,2.20
2022-09-24T12:32:03.388Z,2.13
2022-09-24T12:35:15.246Z,1.73
2022-09-24T12:38:42.600Z,2.30
2022-09-24T12:41:49.756Z,2.03
2022-09-24T12:44:50.951Z,2.03
2022-09-24T12:47:56.042Z,1.77
2022-09-24T12:50:46.180Z,1.70
2022-09-24T12:53:43.277Z,1.77
2022-09-24T12:56:31.508Z,2.78
2022-09-24T12:59:28.518Z,2.00
2022-09-24T13:02:43.162Z,1.50
2022-09-24T13:05:43.151Z,1.95
2022-09-24T13:08:41.325Z,2.05
2022-09-24T13:11:37.952Z,1.90
2022-09-24T13:14:30.661Z,1.70
2022-09-24T13:17:18.721Z,1.60
2022-09-24T13:20:17.801Z,1.80
2022-09-24T13:23:23.120Z,2.00
2022-09-24T13:26:31.302Z,1.70
2022-09-24T13:29:26.550Z,1.70
2022-09-24T13:32:21.767Z,2.05
2022-09-24T13:35:22.173Z,1.70
2022-09-24T13:38:31.534Z,2.08
2022-09-24T13:41:50.884Z,1.70
2022-09-24T13:44:56.412Z,1.63
2022-09-24T13:48:05.793Z,2.03
2022-09-24T13:50:53.886Z,2.25
2022-09-24T13:54:34.320Z,1.80
2022-09-24T13:57:26.559Z,1.88
2022-09-24T14:00:20.227Z,2.15
2022-09-24T14:03:30.047Z,2.17
2022-09-24T14:06:23.065Z,2.15
2022-09-24T14:09:32.400Z,2.35
2022-09-24T14:12:22.862Z,1.48
2022-09-24T14:15:19.410Z,1.73
2022-09-24T14:18:14.385Z,1.70
2022-09-24T14:21:11.860Z,1.80
2022-09-24T14:24:07.017Z,1.80
2022-09-24T14:27:25.071Z,1.70
2022-09-24T14:30:24.041Z,2.00
2022-09-24T14:33:18.250Z,1.60
2022-09-24T14:36:10.240Z,2.00
2022-09-24T14:39:04.581Z,1.98
2022-09-24T14:41:53.430Z,1.77
2022-09-24T14:44:46.412Z,2.00
2022-09-24T14:47:37.010Z,1.67
2022-09-24T14:50:30.786Z,1.60
2022-09-24T14:53:21.236Z,2.95
2022-09-24T14:56:26.410Z,1.88
2022-09-24T14:59:17.920Z,2.10
2022-09-24T15:02:34.990Z,2.10
2022-09-24T15:05:28.249Z,1.58
2022-09-24T15:08:28.233Z,1.77
2022-09-24T15:11:21.407Z,1.40
2022-09-24T15:14:19.290Z,1.73
2022-09-24T15:17:22.340Z,1.80
2022-09-24T15:20:12.888Z,2.10
2022-09-24T15:23:00.356Z,1.80
2022-09-24T15:25:48.081Z,1.60
2022-09-24T15:28:35.580Z,1.88
2022-09-24T15:31:23.307Z,1.65
2022-09-24T15:34:10.966Z,2.30
2022-09-24T15:37:00.155Z,2.03
2022-09-24T15:39:52.755Z,1.90
2022-09-24T15:42:40.231Z,2.28
2022-09-24T15:45:28.158Z,2.17
2022-09-24T15:48:15.902Z,2.35
2022-09-24T15:51:10.077Z,1.95
2022-09-24T15:53:59.416Z,2.00
2022-09-24T15:56:52.249Z,2.25
2022-09-24T15:59:40.561Z,1.85
2022-09-24T16:02:33.228Z,1.75
2022-09-24T16:05:21.664Z,1.43
2022-09-24T16:08:09.165Z,2.20
2022-09-24T16:10:56.730Z,2.03
2022-09-24T16:13:44.217Z,2.20
2022-09-24T16:16:31.898Z,2.30
2022-09-24T16:19:19.520Z,2.30
2022-09-24T16:22:07.145Z,2.10
2022-09-24T16:24:54.688Z,1.93
2022-09-24T16:27:42.726Z,2.33
2022-09-24T16:30:31.502Z,2.00
2022-09-24T16:33:20.971Z,1.80
2022-09-24T16:36:09.711Z,2.33
2022-09-24T16:38:58.899Z,2.53
2022-09-24T16:41:51.490Z,2.33
2022-09-24T16:44:39.015Z,2.03
2022-09-24T16:47:26.637Z,2.00
2022-09-24T16:50:15.561Z,2.28
2022-09-24T16:53:03.266Z,1.80
2022-09-24T16:55:50.803Z,2.10
2022-09-24T16:58:38.276Z,2.73
2022-09-24T17:01:25.811Z,3.60
2022-09-24T17:04:13.837Z,2.97
2022-09-24T17:07:01.341Z,3.00
2022-09-24T17:10:07.650Z,2.58
2022-09-24T17:12:55.196Z,2.00
2022-09-24T17:15:42.800Z,2.20
2022-09-24T17:18:30.335Z,2.50
2022-09-24T17:21:18.131Z,2.00
2022-09-24T17:24:06.965Z,2.30
2022-09-24T17:26:55.225Z,2.23
2022-09-24T17:29:43.121Z,2.80
2022-09-24T17:32:30.822Z,2.23
2022-09-24T17:35:21.510Z,1.73
2022-09-24T17:38:09.086Z,2.63
2022-09-24T17:40:58.739Z,2.00
2022-09-24T17:43:46.551Z,2.73
2022-09-24T17:46:36.037Z,1.90
2022-09-24T17:49:23.683Z,2.00
2022-09-24T17:52:13.509Z,1.90
2022-09-24T17:55:01.090Z,2.60
2022-09-24T17:57:48.571Z,2.80
2022-09-24T18:00:36.126Z,2.73
2022-09-24T18:03:23.647Z,2.67
2022-09-24T18:06:15.331Z,2.90
2022-09-24T18:09:03.596Z,2.13
2022-09-24T18:11:52.852Z,2.63
2022-09-24T18:14:40.363Z,3.10
2022-09-24T18:17:28.048Z,3.27
2022-09-24T18:20:15.752Z,3.07
2022-09-24T18:23:03.462Z,2.40
2022-09-24T18:25:50.959Z,2.90
2022-09-24T18:28:48.066Z,3.30
2022-09-24T18:31:37.165Z,2.80
2022-09-24T18:34:25.320Z,3.23
2022-09-24T18:37:12.816Z,3.30
2022-09-24T18:40:00.565Z,3.10
2022-09-24T18:42:50.257Z,4.10
2022-09-24T18:45:37.885Z,3.00
2022-09-24T18:48:25.436Z,3.43
2022-09-24T18:51:35.981Z,3.23
2022-09-24T18:54:24.972Z,4.33
2022-09-24T18:57:12.486Z,3.37
2022-09-24T19:00:00.022Z,3.30
2022-09-24T19:02:47.698Z,3.67
2022-09-24T19:05:35.427Z,2.80
2022-09-24T19:08:24.620Z,4.20
2022-09-24T19:11:14.466Z,3.30
2022-09-24T19:14:05.068Z,3.20
2022-09-24T19:16:56.474Z,3.70
2022-09-24T19:19:52.167Z,2.93
2022-09-24T19:22:40.074Z,3.23
2022-09-24T19:25:32.560Z,3.20
2022-09-24T19:28:20.266Z,4.10
2022-09-24T19:31:19.147Z,3.07
2022-09-24T19:34:11.545Z,3.27
2022-09-24T19:36:59.126Z,3.23
2022-09-24T19:39:46.711Z,3.40
2022-09-24T19:42:34.227Z,3.67
2022-09-24T19:45:21.857Z,3.90
2022-09-24T19:48:09.361Z,3.93
2022-09-24T19:51:03.640Z,3.90
2022-09-24T19:53:57.541Z,4.00
2022-09-24T19:56:45.081Z,4.03
2022-09-24T19:59:32.570Z,3.63
2022-09-24T20:02:20.263Z,4.63
2022-09-24T20:05:08.420Z,4.03
2022-09-24T20:07:55.965Z,3.80
2022-09-24T20:10:45.005Z,4.90
2022-09-24T20:13:34.065Z,4.00
2022-09-24T20:16:26.458Z,4.43
2022-09-24T20:19:17.043Z,4.67
2022-09-24T20:22:08.501Z,4.20
2022-09-24T20:24:56.300Z,3.37
2022-09-24T20:27:52.965Z,3.80
2022-09-24T20:30:40.938Z,4.10
2022-09-24T20:33:29.400Z,4.37
2022-09-24T20:36:23.239Z,4.13
2022-09-24T20:39:11.982Z,3.80
2022-09-24T20:42:03.985Z,3.50
2022-09-24T20:44:52.749Z,4.00
2022-09-24T20:47:40.323Z,3.27
2022-09-24T20:50:27.876Z,4.10
2022-09-24T20:53:15.347Z,3.73
2022-09-24T20:56:05.135Z,3.90
2022-09-24T20:58:53.811Z,3.67
2022-09-24T21:01:41.685Z,4.13
2022-09-24T21:04:29.217Z,4.70
2022-09-24T21:07:16.781Z,3.80
2022-09-24T21:10:04.581Z,5.37
2022-09-24T21:12:52.087Z,4.13
2022-09-24T21:15:39.727Z,3.90
2022-09-24T21:18:33.314Z,3.90
2022-09-24T21:21:34.820Z,3.20
2022-09-24T21:24:26.332Z,4.10
2022-09-24T21:27:19.056Z,4.77
2022-09-24T21:30:08.027Z,4.83
2022-09-24T21:32:55.516Z,4.40
2022-09-24T21:35:42.980Z,3.37
2022-09-24T21:38:31.287Z,4.13
2022-09-24T21:41:18.768Z,3.37
2022-09-24T21:44:12.581Z,3.97
2022-09-24T21:47:01.495Z,4.33
2022-09-24T21:49:49.006Z,4.40
2022-09-24T21:52:38.272Z,4.17
2022-09-24T21:55:25.780Z,4.60
2022-09-24T21:58:13.256Z,4.60
2022-09-24T22:01:04.960Z,4.27
2022-09-24T22:04:07.545Z,3.40
2022-09-24T22:06:55.198Z,4.33
2022-09-24T22:09:42.730Z,5.30
2022-09-24T22:12:30.456Z,3.87
2022-09-24T22:15:18.021Z,3.93
2022-09-24T22:18:05.721Z,4.20
2022-09-24T22:20:55.261Z,4.83
2022-09-24T22:23:42.881Z,4.50
2022-09-24T22:26:30.627Z,4.60
2022-09-24T22:29:18.177Z,5.07
2022-09-24T22:32:05.782Z,5.93
2022-09-24T22:35:11.890Z,5.47
2022-09-24T22:37:59.615Z,5.03
2022-09-24T22:40:48.023Z,5.20
2022-09-24T22:43:35.825Z,4.43
2022-09-24T22:46:27.571Z,5.07
2022-09-24T22:49:15.251Z,4.33
2022-09-24T22:52:02.831Z,4.30
2022-09-24T22:54:50.343Z,4.53
2022-09-24T22:57:37.821Z,4.47
2022-09-24T23:00:25.361Z,3.83
2022-09-24T23:03:12.817Z,4.70
2022-09-24T23:06:00.434Z,4.73
2022-09-24T23:08:49.552Z,5.57
2022-09-24T23:11:37.160Z,3.97
2022-09-24T23:14:24.872Z,4.37
2022-09-24T23:17:12.434Z,4.00
2022-09-24T23:19:59.980Z,4.77
2022-09-24T23:22:47.601Z,4.40
2022-09-24T23:25:35.085Z,5.20
2022-09-24T23:28:22.656Z,3.80
2022-09-24T23:31:14.796Z,4.97
2022-09-24T23:34:03.470Z,4.90
2022-09-24T23:36:51.389Z,4.50
2022-09-24T23:39:39.513Z,5.10
2022-09-24T23:42:27.262Z,4.53
2022-09-24T23:45:15.319Z,4.80
2022-09-24T23:48:02.877Z,4.87
2022-09-24T23:50:51.310Z,5.50
2022-09-24T23:53:41.464Z,6.30
2022-09-24T23:56:29.200Z,6.33
2022-09-24T23:59:16.878Z,5.60
